sensor_id;sensor_type;location;lat;lon;timestamp;temperature;humidity
23471;DHT22;11908;50.806;4.424;2022-12-28T00:01:21;7.80;99.90
23471;DHT22;11908;50.806;4.424;2022-12-28T00:03:47;7.80;99.90
23471;DHT22;11908;50.806;4.424;2022-12-28T00:06:14;7.80;99.90
23471;DHT22;11908;50.806;4.424;2022-12-28T00:08:40;7.90;99.90
23471;DHT22;11908;50.806;4.424;2022-12-28T00:11:15;7.90;99.90
23471;DHT22;11908;50.806;4.424;2022-12-28T00:13:41;7.90;99.90
23471;DHT22;11908;50.806;4.424;2022-12-28T00:16:34;7.80;99.90
23471;DHT22;11908;50.806;4.424;2022-12-28T00:19:00;7.90;99.90
23471;DHT22;11908;50.806;4.424;2022-12-28T00:21:27;7.90;99.90
23471;DHT22;11908;50.806;4.424;2022-12-28T00:23:54;7.90;99.90
23471;DHT22;11908;50.806;4.424;2022-12-28T00:26:20;7.80;99.90
23471;DHT22;11908;50.806;4.424;2022-12-28T00:28:47;7.80;99.90
23471;DHT22;11908;50.806;4.424;2022-12-28T00:31:13;7.80;99.90
23471;DHT22;11908;50.806;4.424;2022-12-28T00:33:39;7.80;99.90
23471;DHT22;11908;50.806;4.424;2022-12-28T00:36:05;7.80;99.90
23471;DHT22;11908;50.806;4.424;2022-12-28T00:38:34;7.90;99.90
23471;DHT22;11908;50.806;4.424;2022-12-28T00:41:00;7.80;99.90
23471;DHT22;11908;50.806;4.424;2022-12-28T00:43:26;7.90;99.90
23471;DHT22;11908;50.806;4.424;2022-12-28T00:45:52;7.90;99.90
23471;DHT22;11908;50.806;4.424;2022-12-28T00:48:17;7.90;99.90
23471;DHT22;11908;50.806;4.424;2022-12-28T00:50:44;7.90;99.90
23471;DHT22;11908;50.806;4.424;2022-12-28T00:53:10;7.90;99.90
23471;DHT22;11908;50.806;4.424;2022-12-28T00:55:37;7.90;99.90
23471;DHT22;11908;50.806;4.424;2022-12-28T00:58:02;8.00;99.90
23471;DHT22;11908;50.806;4.424;2022-12-28T01:00:29;7.90;99.90
23471;DHT22;11908;50.806;4.424;2022-12-28T01:02:55;8.00;99.90
23471;DHT22;11908;50.806;4.424;2022-12-28T01:05:21;7.90;99.90
23471;DHT22;11908;50.806;4.424;2022-12-28T01:07:47;7.90;99.90
23471;DHT22;11908;50.806;4.424;2022-12-28T01:10:13;8.00;99.90
23471;DHT22;11908;50.806;4.424;2022-12-28T01:12:39;8.00;99.90
23471;DHT22;11908;50.806;4.424;2022-12-28T01:15:07;8.00;99.90
23471;DHT22;11908;50.806;4.424;2022-12-28T01:17:33;8.10;99.90
23471;DHT22;11908;50.806;4.424;2022-12-28T01:19:59;8.10;99.90
23471;DHT22;11908;50.806;4.424;2022-12-28T01:22:25;8.10;99.90
23471;DHT22;11908;50.806;4.424;2022-12-28T01:24:51;8.20;99.90
23471;DHT22;11908;50.806;4.424;2022-12-28T01:27:17;8.20;99.90
23471;DHT22;11908;50.806;4.424;2022-12-28T01:29:43;8.20;99.90
23471;DHT22;11908;50.806;4.424;2022-12-28T01:32:08;8.20;99.90
23471;DHT22;11908;50.806;4.424;2022-12-28T01:34:34;8.20;99.90
23471;DHT22;11908;50.806;4.424;2022-12-28T01:37:00;8.20;99.90
23471;DHT22;11908;50.806;4.424;2022-12-28T01:39:25;8.30;99.90
23471;DHT22;11908;50.806;4.424;2022-12-28T01:41:51;8.30;99.90
23471;DHT22;11908;50.806;4.424;2022-12-28T01:46:56;8.30;99.90
23471;DHT22;11908;50.806;4.424;2022-12-28T01:49:52;8.40;99.90
23471;DHT22;11908;50.806;4.424;2022-12-28T01:52:47;8.40;99.90
23471;DHT22;11908;50.806;4.424;2022-12-28T01:55:13;8.40;99.90
23471;DHT22;11908;50.806;4.424;2022-12-28T01:57:47;8.40;99.90
23471;DHT22;11908;50.806;4.424;2022-12-28T02:00:16;8.40;99.90
23471;DHT22;11908;50.806;4.424;2022-12-28T02:02:47;8.30;99.90
23471;DHT22;11908;50.806;4.424;2022-12-28T02:05:14;8.30;99.90
23471;DHT22;11908;50.806;4.424;2022-12-28T02:10:28;8.30;99.90
23471;DHT22;11908;50.806;4.424;2022-12-28T02:12:55;8.30;99.90
23471;DHT22;11908;50.806;4.424;2022-12-28T02:15:21;8.30;99.90
23471;DHT22;11908;50.806;4.424;2022-12-28T02:17:47;8.30;99.90
23471;DHT22;11908;50.806;4.424;2022-12-28T02:20:13;8.30;99.90
23471;DHT22;11908;50.806;4.424;2022-12-28T02:23:17;8.30;99.90
23471;DHT22;11908;50.806;4.424;2022-12-28T02:26:06;8.40;99.90
23471;DHT22;11908;50.806;4.424;2022-12-28T02:28:59;8.40;99.90
23471;DHT22;11908;50.806;4.424;2022-12-28T02:37:00;8.50;99.90
23471;DHT22;11908;50.806;4.424;2022-12-28T02:39:43;8.50;99.90
23471;DHT22;11908;50.806;4.424;2022-12-28T02:42:12;8.50;99.90
23471;DHT22;11908;50.806;4.424;2022-12-28T02:44:38;8.50;99.90
23471;DHT22;11908;50.806;4.424;2022-12-28T02:47:22;8.60;99.90
23471;DHT22;11908;50.806;4.424;2022-12-28T02:50:11;8.60;99.90
23471;DHT22;11908;50.806;4.424;2022-12-28T03:01:27;8.60;99.90
23471;DHT22;11908;50.806;4.424;2022-12-28T03:04:16;8.70;99.90
23471;DHT22;11908;50.806;4.424;2022-12-28T03:07:05;8.60;99.90
23471;DHT22;11908;50.806;4.424;2022-12-28T03:09:58;8.60;99.90
23471;DHT22;11908;50.806;4.424;2022-12-28T03:12:37;8.60;99.90
23471;DHT22;11908;50.806;4.424;2022-12-28T03:15:12;8.60;99.90
23471;DHT22;11908;50.806;4.424;2022-12-28T03:17:39;8.60;99.90
23471;DHT22;11908;50.806;4.424;2022-12-28T03:20:29;8.60;99.90
23471;DHT22;11908;50.806;4.424;2022-12-28T03:23:16;8.60;99.90
23471;DHT22;11908;50.806;4.424;2022-12-28T03:26:02;8.50;99.90
23471;DHT22;11908;50.806;4.424;2022-12-28T03:28:48;8.50;99.90
23471;DHT22;11908;50.806;4.424;2022-12-28T03:31:33;8.60;99.90
23471;DHT22;11908;50.806;4.424;2022-12-28T03:34:00;8.70;99.90
23471;DHT22;11908;50.806;4.424;2022-12-28T03:36:36;8.70;99.90
23471;DHT22;11908;50.806;4.424;2022-12-28T03:42:15;8.70;99.90
23471;DHT22;11908;50.806;4.424;2022-12-28T03:47:49;8.70;99.90
23471;DHT22;11908;50.806;4.424;2022-12-28T03:50:17;8.70;99.90
23471;DHT22;11908;50.806;4.424;2022-12-28T03:52:43;8.70;99.90
23471;DHT22;11908;50.806;4.424;2022-12-28T03:55:12;8.80;99.90
23471;DHT22;11908;50.806;4.424;2022-12-28T03:57:38;8.80;99.90
23471;DHT22;11908;50.806;4.424;2022-12-28T04:00:05;8.80;99.90
23471;DHT22;11908;50.806;4.424;2022-12-28T04:02:31;8.80;99.90
23471;DHT22;11908;50.806;4.424;2022-12-28T04:04:57;8.80;99.90
23471;DHT22;11908;50.806;4.424;2022-12-28T04:07:22;8.70;99.90
23471;DHT22;11908;50.806;4.424;2022-12-28T04:09:48;8.70;99.90
23471;DHT22;11908;50.806;4.424;2022-12-28T04:12:14;8.70;99.90
23471;DHT22;11908;50.806;4.424;2022-12-28T04:14:39;8.70;99.90
23471;DHT22;11908;50.806;4.424;2022-12-28T04:17:05;8.70;99.90
23471;DHT22;11908;50.806;4.424;2022-12-28T04:19:31;8.60;99.90
23471;DHT22;11908;50.806;4.424;2022-12-28T04:21:56;8.60;99.90
23471;DHT22;11908;50.806;4.424;2022-12-28T04:24:22;8.70;99.90
23471;DHT22;11908;50.806;4.424;2022-12-28T04:26:48;8.70;99.90
23471;DHT22;11908;50.806;4.424;2022-12-28T04:29:13;8.60;99.90
23471;DHT22;11908;50.806;4.424;2022-12-28T04:31:39;8.60;99.90
23471;DHT22;11908;50.806;4.424;2022-12-28T04:34:05;8.60;99.90
23471;DHT22;11908;50.806;4.424;2022-12-28T04:36:31;8.60;99.90
23471;DHT22;11908;50.806;4.424;2022-12-28T04:38:58;8.60;99.90
23471;DHT22;11908;50.806;4.424;2022-12-28T04:41:24;8.60;99.90
23471;DHT22;11908;50.806;4.424;2022-12-28T04:43:50;8.60;99.90
23471;DHT22;11908;50.806;4.424;2022-12-28T04:46:16;8.70;99.90
23471;DHT22;11908;50.806;4.424;2022-12-28T04:48:42;8.60;99.90
23471;DHT22;11908;50.806;4.424;2022-12-28T04:51:23;8.60;99.90
23471;DHT22;11908;50.806;4.424;2022-12-28T04:53:50;8.60;99.90
23471;DHT22;11908;50.806;4.424;2022-12-28T04:56:17;8.60;99.90
23471;DHT22;11908;50.806;4.424;2022-12-28T04:58:44;8.60;99.90
23471;DHT22;11908;50.806;4.424;2022-12-28T05:01:13;8.60;99.90
23471;DHT22;11908;50.806;4.424;2022-12-28T05:03:41;8.70;99.90
23471;DHT22;11908;50.806;4.424;2022-12-28T05:06:10;8.70;99.90
23471;DHT22;11908;50.806;4.424;2022-12-28T05:08:37;8.70;99.90
23471;DHT22;11908;50.806;4.424;2022-12-28T05:11:05;8.80;99.90
23471;DHT22;11908;50.806;4.424;2022-12-28T05:13:31;8.70;99.90
23471;DHT22;11908;50.806;4.424;2022-12-28T05:16:01;8.70;99.90
23471;DHT22;11908;50.806;4.424;2022-12-28T05:18:27;8.80;99.90
23471;DHT22;11908;50.806;4.424;2022-12-28T05:21:20;8.90;99.90
23471;DHT22;11908;50.806;4.424;2022-12-28T05:23:47;8.80;99.90
23471;DHT22;11908;50.806;4.424;2022-12-28T05:26:15;8.80;99.90
23471;DHT22;11908;50.806;4.424;2022-12-28T05:28:41;8.80;99.90
23471;DHT22;11908;50.806;4.424;2022-12-28T05:31:11;8.80;99.90
23471;DHT22;11908;50.806;4.424;2022-12-28T05:33:36;8.80;99.90
23471;DHT22;11908;50.806;4.424;2022-12-28T05:36:10;8.80;99.90
23471;DHT22;11908;50.806;4.424;2022-12-28T05:38:36;8.80;99.90
23471;DHT22;11908;50.806;4.424;2022-12-28T05:41:14;8.80;99.90
23471;DHT22;11908;50.806;4.424;2022-12-28T05:43:41;8.80;99.90
23471;DHT22;11908;50.806;4.424;2022-12-28T05:46:10;8.80;99.90
23471;DHT22;11908;50.806;4.424;2022-12-28T05:48:38;8.80;99.90
23471;DHT22;11908;50.806;4.424;2022-12-28T05:51:09;8.90;99.90
23471;DHT22;11908;50.806;4.424;2022-12-28T05:53:36;8.90;99.90
23471;DHT22;11908;50.806;4.424;2022-12-28T05:56:03;8.90;99.90
23471;DHT22;11908;50.806;4.424;2022-12-28T05:58:29;9.00;99.90
23471;DHT22;11908;50.806;4.424;2022-12-28T06:01:05;9.00;99.90
23471;DHT22;11908;50.806;4.424;2022-12-28T06:03:31;9.00;99.90
23471;DHT22;11908;50.806;4.424;2022-12-28T06:05:56;9.00;99.90
23471;DHT22;11908;50.806;4.424;2022-12-28T06:08:27;9.00;99.90
23471;DHT22;11908;50.806;4.424;2022-12-28T06:10:52;9.00;99.90
23471;DHT22;11908;50.806;4.424;2022-12-28T06:13:18;9.00;99.90
23471;DHT22;11908;50.806;4.424;2022-12-28T06:15:44;9.10;99.90
23471;DHT22;11908;50.806;4.424;2022-12-28T06:18:09;9.10;99.90
23471;DHT22;11908;50.806;4.424;2022-12-28T06:20:35;9.10;99.90
23471;DHT22;11908;50.806;4.424;2022-12-28T06:23:00;9.10;99.90
23471;DHT22;11908;50.806;4.424;2022-12-28T06:25:26;9.10;99.90
23471;DHT22;11908;50.806;4.424;2022-12-28T06:27:52;9.10;99.90
23471;DHT22;11908;50.806;4.424;2022-12-28T06:30:18;9.10;99.90
23471;DHT22;11908;50.806;4.424;2022-12-28T06:32:43;9.20;99.90
23471;DHT22;11908;50.806;4.424;2022-12-28T06:35:09;9.20;99.90
23471;DHT22;11908;50.806;4.424;2022-12-28T06:37:34;9.30;99.90
23471;DHT22;11908;50.806;4.424;2022-12-28T06:40:00;9.40;99.90
23471;DHT22;11908;50.806;4.424;2022-12-28T06:42:26;9.40;99.90
23471;DHT22;11908;50.806;4.424;2022-12-28T06:44:52;9.40;99.90
23471;DHT22;11908;50.806;4.424;2022-12-28T06:47:17;9.40;99.90
23471;DHT22;11908;50.806;4.424;2022-12-28T06:49:43;9.50;99.90
23471;DHT22;11908;50.806;4.424;2022-12-28T06:52:08;9.50;99.90
23471;DHT22;11908;50.806;4.424;2022-12-28T06:54:34;9.50;99.90
23471;DHT22;11908;50.806;4.424;2022-12-28T06:57:00;9.50;99.90
23471;DHT22;11908;50.806;4.424;2022-12-28T06:59:26;9.50;99.90
23471;DHT22;11908;50.806;4.424;2022-12-28T07:01:52;9.60;99.90
23471;DHT22;11908;50.806;4.424;2022-12-28T07:04:17;9.60;99.90
23471;DHT22;11908;50.806;4.424;2022-12-28T07:06:43;9.60;99.90
23471;DHT22;11908;50.806;4.424;2022-12-28T07:09:12;9.60;99.90
23471;DHT22;11908;50.806;4.424;2022-12-28T07:11:38;9.70;99.90
23471;DHT22;11908;50.806;4.424;2022-12-28T07:14:04;9.70;99.90
23471;DHT22;11908;50.806;4.424;2022-12-28T07:16:30;9.70;99.90
23471;DHT22;11908;50.806;4.424;2022-12-28T07:18:58;9.70;99.90
23471;DHT22;11908;50.806;4.424;2022-12-28T07:21:26;9.70;99.90
23471;DHT22;11908;50.806;4.424;2022-12-28T07:23:53;9.60;99.90
23471;DHT22;11908;50.806;4.424;2022-12-28T07:26:22;9.70;99.90
23471;DHT22;11908;50.806;4.424;2022-12-28T07:28:50;9.70;99.90
23471;DHT22;11908;50.806;4.424;2022-12-28T07:31:18;9.60;99.90
23471;DHT22;11908;50.806;4.424;2022-12-28T07:33:45;9.50;99.90
23471;DHT22;11908;50.806;4.424;2022-12-28T07:36:14;9.50;99.90
23471;DHT22;11908;50.806;4.424;2022-12-28T07:38:40;9.40;99.90
23471;DHT22;11908;50.806;4.424;2022-12-28T07:41:40;9.40;99.90
23471;DHT22;11908;50.806;4.424;2022-12-28T07:44:00;9.30;99.90
23471;DHT22;11908;50.806;4.424;2022-12-28T07:46:29;9.20;99.90
23471;DHT22;11908;50.806;4.424;2022-12-28T07:48:55;9.20;99.90
23471;DHT22;11908;50.806;4.424;2022-12-28T07:51:29;9.10;99.90
23471;DHT22;11908;50.806;4.424;2022-12-28T07:53:56;9.20;99.90
23471;DHT22;11908;50.806;4.424;2022-12-28T07:56:23;9.20;99.90
23471;DHT22;11908;50.806;4.424;2022-12-28T07:58:50;9.10;99.90
23471;DHT22;11908;50.806;4.424;2022-12-28T08:01:18;9.20;99.90
23471;DHT22;11908;50.806;4.424;2022-12-28T08:03:44;9.00;99.90
23471;DHT22;11908;50.806;4.424;2022-12-28T08:06:15;9.10;99.90
23471;DHT22;11908;50.806;4.424;2022-12-28T08:08:44;9.00;99.90
23471;DHT22;11908;50.806;4.424;2022-12-28T08:11:16;9.00;99.90
23471;DHT22;11908;50.806;4.424;2022-12-28T08:13:44;9.00;99.90
23471;DHT22;11908;50.806;4.424;2022-12-28T08:16:11;9.00;99.90
23471;DHT22;11908;50.806;4.424;2022-12-28T08:18:38;9.00;99.90
23471;DHT22;11908;50.806;4.424;2022-12-28T08:21:16;9.00;99.90
23471;DHT22;11908;50.806;4.424;2022-12-28T08:23:42;9.00;99.90
23471;DHT22;11908;50.806;4.424;2022-12-28T08:28:39;9.00;99.90
23471;DHT22;11908;50.806;4.424;2022-12-28T08:31:10;9.10;99.90
23471;DHT22;11908;50.806;4.424;2022-12-28T08:33:36;9.10;99.90
23471;DHT22;11908;50.806;4.424;2022-12-28T08:36:03;9.10;99.90
23471;DHT22;11908;50.806;4.424;2022-12-28T08:38:29;9.10;99.90
23471;DHT22;11908;50.806;4.424;2022-12-28T08:40:56;9.00;99.90
23471;DHT22;11908;50.806;4.424;2022-12-28T08:43:23;9.10;99.90
23471;DHT22;11908;50.806;4.424;2022-12-28T08:45:59;9.10;99.90
23471;DHT22;11908;50.806;4.424;2022-12-28T08:48:26;9.10;99.90
23471;DHT22;11908;50.806;4.424;2022-12-28T08:50:53;9.00;99.90
23471;DHT22;11908;50.806;4.424;2022-12-28T08:53:19;9.10;99.90
23471;DHT22;11908;50.806;4.424;2022-12-28T08:55:46;9.10;99.90
23471;DHT22;11908;50.806;4.424;2022-12-28T08:58:12;9.10;99.90
23471;DHT22;11908;50.806;4.424;2022-12-28T09:00:38;9.10;99.90
23471;DHT22;11908;50.806;4.424;2022-12-28T09:03:04;9.20;99.90
23471;DHT22;11908;50.806;4.424;2022-12-28T09:05:29;9.20;99.90
23471;DHT22;11908;50.806;4.424;2022-12-28T09:07:55;9.20;99.90
23471;DHT22;11908;50.806;4.424;2022-12-28T09:10:21;9.30;99.90
23471;DHT22;11908;50.806;4.424;2022-12-28T09:12:46;9.30;99.90
23471;DHT22;11908;50.806;4.424;2022-12-28T09:15:12;9.30;99.90
23471;DHT22;11908;50.806;4.424;2022-12-28T09:17:38;9.30;99.90
23471;DHT22;11908;50.806;4.424;2022-12-28T09:20:04;9.30;99.90
23471;DHT22;11908;50.806;4.424;2022-12-28T09:22:30;9.30;99.90
23471;DHT22;11908;50.806;4.424;2022-12-28T09:24:56;9.30;99.90
23471;DHT22;11908;50.806;4.424;2022-12-28T09:27:22;9.30;99.90
23471;DHT22;11908;50.806;4.424;2022-12-28T09:29:47;9.30;99.90
23471;DHT22;11908;50.806;4.424;2022-12-28T09:32:13;9.30;99.90
23471;DHT22;11908;50.806;4.424;2022-12-28T09:34:39;9.40;99.90
23471;DHT22;11908;50.806;4.424;2022-12-28T09:37:06;9.30;99.90
23471;DHT22;11908;50.806;4.424;2022-12-28T09:39:32;9.40;99.90
23471;DHT22;11908;50.806;4.424;2022-12-28T09:42:21;9.40;99.90
23471;DHT22;11908;50.806;4.424;2022-12-28T09:45:03;9.40;99.90
23471;DHT22;11908;50.806;4.424;2022-12-28T09:47:43;9.40;99.90
23471;DHT22;11908;50.806;4.424;2022-12-28T09:55:59;9.50;99.90
23471;DHT22;11908;50.806;4.424;2022-12-28T09:58:26;9.50;99.90
23471;DHT22;11908;50.806;4.424;2022-12-28T10:00:58;9.50;99.90
23471;DHT22;11908;50.806;4.424;2022-12-28T10:03:38;9.50;99.90
23471;DHT22;11908;50.806;4.424;2022-12-28T10:06:13;9.50;99.90
23471;DHT22;11908;50.806;4.424;2022-12-28T10:08:48;9.60;99.90
23471;DHT22;11908;50.806;4.424;2022-12-28T10:11:38;9.60;99.90
23471;DHT22;11908;50.806;4.424;2022-12-28T10:14:24;9.60;99.90
23471;DHT22;11908;50.806;4.424;2022-12-28T10:16:52;9.60;99.90
23471;DHT22;11908;50.806;4.424;2022-12-28T10:19:21;9.60;99.90
23471;DHT22;11908;50.806;4.424;2022-12-28T10:22:04;9.60;99.90
23471;DHT22;11908;50.806;4.424;2022-12-28T10:24:31;9.60;99.90
23471;DHT22;11908;50.806;4.424;2022-12-28T10:26:59;9.60;99.90
23471;DHT22;11908;50.806;4.424;2022-12-28T10:29:26;9.70;99.90
23471;DHT22;11908;50.806;4.424;2022-12-28T10:32:06;9.70;99.90
23471;DHT22;11908;50.806;4.424;2022-12-28T10:34:34;9.70;99.90
23471;DHT22;11908;50.806;4.424;2022-12-28T10:37:13;9.70;99.90
23471;DHT22;11908;50.806;4.424;2022-12-28T10:39:40;9.70;99.90
23471;DHT22;11908;50.806;4.424;2022-12-28T10:42:39;9.70;99.90
23471;DHT22;11908;50.806;4.424;2022-12-28T10:45:15;9.80;99.90
23471;DHT22;11908;50.806;4.424;2022-12-28T10:47:47;9.80;99.90
23471;DHT22;11908;50.806;4.424;2022-12-28T10:50:38;9.80;99.90
23471;DHT22;11908;50.806;4.424;2022-12-28T10:53:14;9.80;99.90
23471;DHT22;11908;50.806;4.424;2022-12-28T10:55:40;9.70;99.90
23471;DHT22;11908;50.806;4.424;2022-12-28T10:58:20;9.80;99.90
23471;DHT22;11908;50.806;4.424;2022-12-28T11:00:54;9.80;99.90
23471;DHT22;11908;50.806;4.424;2022-12-28T11:03:24;9.80;99.90
23471;DHT22;11908;50.806;4.424;2022-12-28T11:06:28;9.90;99.90
23471;DHT22;11908;50.806;4.424;2022-12-28T11:09:14;9.90;99.90
23471;DHT22;11908;50.806;4.424;2022-12-28T11:11:45;9.90;99.90
23471;DHT22;11908;50.806;4.424;2022-12-28T11:14:35;9.90;99.90
23471;DHT22;11908;50.806;4.424;2022-12-28T11:19:48;10.00;99.90
23471;DHT22;11908;50.806;4.424;2022-12-28T11:22:21;10.00;99.90
23471;DHT22;11908;50.806;4.424;2022-12-28T11:24:48;10.00;99.90
23471;DHT22;11908;50.806;4.424;2022-12-28T11:27:17;10.10;99.90
23471;DHT22;11908;50.806;4.424;2022-12-28T11:29:47;10.10;99.90
23471;DHT22;11908;50.806;4.424;2022-12-28T11:32:24;10.10;99.90
23471;DHT22;11908;50.806;4.424;2022-12-28T11:34:52;10.10;99.90
23471;DHT22;11908;50.806;4.424;2022-12-28T11:37:18;10.20;99.90
23471;DHT22;11908;50.806;4.424;2022-12-28T11:39:46;10.10;99.90
23471;DHT22;11908;50.806;4.424;2022-12-28T11:45:05;10.10;99.90
23471;DHT22;11908;50.806;4.424;2022-12-28T11:47:33;10.10;99.90
23471;DHT22;11908;50.806;4.424;2022-12-28T11:53:01;10.10;99.90
23471;DHT22;11908;50.806;4.424;2022-12-28T12:00:56;10.20;99.90
23471;DHT22;11908;50.806;4.424;2022-12-28T12:11:55;10.30;99.90
23471;DHT22;11908;50.806;4.424;2022-12-28T12:15:00;10.20;99.90
23471;DHT22;11908;50.806;4.424;2022-12-28T12:19:59;10.40;99.90
23471;DHT22;11908;50.806;4.424;2022-12-28T12:22:32;10.40;99.90
23471;DHT22;11908;50.806;4.424;2022-12-28T12:25:17;10.40;99.90
23471;DHT22;11908;50.806;4.424;2022-12-28T12:27:49;10.40;99.90
23471;DHT22;11908;50.806;4.424;2022-12-28T12:30:19;10.40;99.90
23471;DHT22;11908;50.806;4.424;2022-12-28T12:32:51;10.40;99.90
23471;DHT22;11908;50.806;4.424;2022-12-28T12:35:23;10.30;99.90
23471;DHT22;11908;50.806;4.424;2022-12-28T12:41:04;10.30;99.90
23471;DHT22;11908;50.806;4.424;2022-12-28T12:46:36;10.30;99.90
23471;DHT22;11908;50.806;4.424;2022-12-28T12:55:14;10.40;99.90
23471;DHT22;11908;50.806;4.424;2022-12-28T12:58:00;10.40;99.90
23471;DHT22;11908;50.806;4.424;2022-12-28T13:04:03;10.40;99.90
23471;DHT22;11908;50.806;4.424;2022-12-28T13:06:04;10.40;99.90
23471;DHT22;11908;50.806;4.424;2022-12-28T13:09:01;10.40;99.90
23471;DHT22;11908;50.806;4.424;2022-12-28T13:11:28;10.40;99.90
23471;DHT22;11908;50.806;4.424;2022-12-28T13:13:54;10.50;99.90
23471;DHT22;11908;50.806;4.424;2022-12-28T13:16:24;10.60;99.90
23471;DHT22;11908;50.806;4.424;2022-12-28T13:18:56;10.60;99.90
23471;DHT22;11908;50.806;4.424;2022-12-28T13:21:24;10.70;99.90
23471;DHT22;11908;50.806;4.424;2022-12-28T13:23:50;10.70;99.90
23471;DHT22;11908;50.806;4.424;2022-12-28T13:26:28;10.70;99.90
23471;DHT22;11908;50.806;4.424;2022-12-28T13:29:07;10.80;99.90
23471;DHT22;11908;50.806;4.424;2022-12-28T13:31:38;10.80;99.90
23471;DHT22;11908;50.806;4.424;2022-12-28T13:34:50;10.80;99.90
23471;DHT22;11908;50.806;4.424;2022-12-28T13:36:54;10.90;99.90
23471;DHT22;11908;50.806;4.424;2022-12-28T13:39:28;11.00;99.90
23471;DHT22;11908;50.806;4.424;2022-12-28T13:42:03;11.00;99.90
23471;DHT22;11908;50.806;4.424;2022-12-28T13:44:40;11.00;99.90
23471;DHT22;11908;50.806;4.424;2022-12-28T13:47:35;11.00;99.90
23471;DHT22;11908;50.806;4.424;2022-12-28T13:50:07;11.00;99.90
23471;DHT22;11908;50.806;4.424;2022-12-28T13:55:20;11.10;99.90
23471;DHT22;11908;50.806;4.424;2022-12-28T13:57:49;11.10;99.90
23471;DHT22;11908;50.806;4.424;2022-12-28T14:00:18;11.10;99.90
23471;DHT22;11908;50.806;4.424;2022-12-28T14:02:44;11.00;99.90
23471;DHT22;11908;50.806;4.424;2022-12-28T14:05:18;11.00;99.90
23471;DHT22;11908;50.806;4.424;2022-12-28T14:07:45;11.10;99.90
23471;DHT22;11908;50.806;4.424;2022-12-28T14:10:11;11.00;99.90
23471;DHT22;11908;50.806;4.424;2022-12-28T14:12:38;11.00;99.90
23471;DHT22;11908;50.806;4.424;2022-12-28T14:15:05;11.00;99.90
23471;DHT22;11908;50.806;4.424;2022-12-28T14:17:31;10.90;99.90
23471;DHT22;11908;50.806;4.424;2022-12-28T14:19:57;11.00;99.90
23471;DHT22;11908;50.806;4.424;2022-12-28T14:22:35;11.00;99.90
23471;DHT22;11908;50.806;4.424;2022-12-28T14:25:06;10.90;99.90
23471;DHT22;11908;50.806;4.424;2022-12-28T14:27:36;10.90;99.90
23471;DHT22;11908;50.806;4.424;2022-12-28T14:30:04;10.90;99.90
23471;DHT22;11908;50.806;4.424;2022-12-28T14:32:30;10.80;99.90
23471;DHT22;11908;50.806;4.424;2022-12-28T14:34:59;10.80;99.90
23471;DHT22;11908;50.806;4.424;2022-12-28T14:37:32;10.80;99.90
23471;DHT22;11908;50.806;4.424;2022-12-28T14:40:01;10.80;99.90
23471;DHT22;11908;50.806;4.424;2022-12-28T14:42:28;10.80;99.90
23471;DHT22;11908;50.806;4.424;2022-12-28T14:44:54;10.80;99.90
23471;DHT22;11908;50.806;4.424;2022-12-28T14:47:32;10.70;99.90
23471;DHT22;11908;50.806;4.424;2022-12-28T14:49:59;10.70;99.90
23471;DHT22;11908;50.806;4.424;2022-12-28T14:52:35;10.70;99.90
23471;DHT22;11908;50.806;4.424;2022-12-28T14:55:23;10.70;99.90
23471;DHT22;11908;50.806;4.424;2022-12-28T14:57:59;10.60;99.90
23471;DHT22;11908;50.806;4.424;2022-12-28T15:00:35;10.50;99.90
23471;DHT22;11908;50.806;4.424;2022-12-28T15:06:17;10.60;99.90
23471;DHT22;11908;50.806;4.424;2022-12-28T15:08:48;10.60;99.90
23471;DHT22;11908;50.806;4.424;2022-12-28T15:11:17;10.50;99.90
23471;DHT22;11908;50.806;4.424;2022-12-28T15:13:42;10.50;99.90
23471;DHT22;11908;50.806;4.424;2022-12-28T15:16:10;10.50;99.90
23471;DHT22;11908;50.806;4.424;2022-12-28T15:18:38;10.50;99.90
23471;DHT22;11908;50.806;4.424;2022-12-28T15:21:13;10.40;99.90
23471;DHT22;11908;50.806;4.424;2022-12-28T15:23:39;10.40;99.90
23471;DHT22;11908;50.806;4.424;2022-12-28T15:26:07;10.40;99.90
23471;DHT22;11908;50.806;4.424;2022-12-28T15:28:32;10.30;99.90
23471;DHT22;11908;50.806;4.424;2022-12-28T15:30:58;10.40;99.90
23471;DHT22;11908;50.806;4.424;2022-12-28T15:33:24;10.40;99.90
23471;DHT22;11908;50.806;4.424;2022-12-28T15:35:49;10.30;99.90
23471;DHT22;11908;50.806;4.424;2022-12-28T15:38:15;10.30;99.90
23471;DHT22;11908;50.806;4.424;2022-12-28T15:40:40;10.20;99.90
23471;DHT22;11908;50.806;4.424;2022-12-28T15:43:06;10.20;99.90
23471;DHT22;11908;50.806;4.424;2022-12-28T15:45:32;10.20;99.90
23471;DHT22;11908;50.806;4.424;2022-12-28T15:47:57;10.10;99.90
23471;DHT22;11908;50.806;4.424;2022-12-28T15:50:23;10.10;99.90
23471;DHT22;11908;50.806;4.424;2022-12-28T15:52:49;10.10;99.90
23471;DHT22;11908;50.806;4.424;2022-12-28T15:55:15;10.00;99.90
23471;DHT22;11908;50.806;4.424;2022-12-28T15:57:40;9.90;99.90
23471;DHT22;11908;50.806;4.424;2022-12-28T16:00:07;9.90;99.90
23471;DHT22;11908;50.806;4.424;2022-12-28T16:02:33;10.00;99.90
23471;DHT22;11908;50.806;4.424;2022-12-28T16:04:58;10.00;99.90
23471;DHT22;11908;50.806;4.424;2022-12-28T16:07:24;10.00;99.90
23471;DHT22;11908;50.806;4.424;2022-12-28T16:09:50;10.00;99.90
23471;DHT22;11908;50.806;4.424;2022-12-28T16:12:15;10.00;99.90
23471;DHT22;11908;50.806;4.424;2022-12-28T16:14:43;10.00;99.90
23471;DHT22;11908;50.806;4.424;2022-12-28T16:17:09;10.00;99.90
23471;DHT22;11908;50.806;4.424;2022-12-28T16:19:35;9.90;99.90
23471;DHT22;11908;50.806;4.424;2022-12-28T16:22:01;9.90;99.90
23471;DHT22;11908;50.806;4.424;2022-12-28T16:24:26;10.00;99.90
23471;DHT22;11908;50.806;4.424;2022-12-28T16:26:53;9.90;99.90
23471;DHT22;11908;50.806;4.424;2022-12-28T16:29:19;9.90;99.90
23471;DHT22;11908;50.806;4.424;2022-12-28T16:31:44;9.90;99.90
23471;DHT22;11908;50.806;4.424;2022-12-28T16:34:15;9.90;99.90
23471;DHT22;11908;50.806;4.424;2022-12-28T16:36:44;9.90;99.90
23471;DHT22;11908;50.806;4.424;2022-12-28T16:39:12;9.90;99.90
23471;DHT22;11908;50.806;4.424;2022-12-28T16:41:39;9.90;99.90
23471;DHT22;11908;50.806;4.424;2022-12-28T16:44:17;9.90;99.90
23471;DHT22;11908;50.806;4.424;2022-12-28T16:46:43;9.80;99.90
23471;DHT22;11908;50.806;4.424;2022-12-28T16:49:11;9.90;99.90
23471;DHT22;11908;50.806;4.424;2022-12-28T16:51:40;9.80;99.90
23471;DHT22;11908;50.806;4.424;2022-12-28T16:54:06;9.80;99.90
23471;DHT22;11908;50.806;4.424;2022-12-28T16:56:33;9.70;99.90
23471;DHT22;11908;50.806;4.424;2022-12-28T16:58:59;9.70;99.90
23471;DHT22;11908;50.806;4.424;2022-12-28T17:01:25;9.70;99.90
23471;DHT22;11908;50.806;4.424;2022-12-28T17:03:51;9.70;99.90
23471;DHT22;11908;50.806;4.424;2022-12-28T17:06:17;9.70;99.90
23471;DHT22;11908;50.806;4.424;2022-12-28T17:08:43;9.70;99.90
23471;DHT22;11908;50.806;4.424;2022-12-28T17:11:09;9.70;99.90
23471;DHT22;11908;50.806;4.424;2022-12-28T17:13:36;9.70;99.90
23471;DHT22;11908;50.806;4.424;2022-12-28T17:16:02;9.70;99.90
23471;DHT22;11908;50.806;4.424;2022-12-28T17:18:28;9.70;99.90
23471;DHT22;11908;50.806;4.424;2022-12-28T17:20:54;9.70;99.90